createdAt,value
2017-11-16T00:01:26.441Z,101320.39
2017-11-16T00:03:53.831Z,101311.85
2017-11-16T00:06:21.244Z,101308.41
2017-11-16T00:08:48.636Z,101312.03
2017-11-16T00:11:16.044Z,101304.34
2017-11-16T00:13:43.450Z,101310.64
2017-11-16T00:16:10.869Z,101303.82
2017-11-16T00:18:38.263Z,101304.34
2017-11-16T00:21:05.659Z,101308.18
2017-11-16T00:23:33.065Z,101303.44
2017-11-16T00:26:00.468Z,101300.09
2017-11-16T00:28:27.872Z,101301.00
2017-11-16T00:30:55.275Z,101302.38
2017-11-16T00:33:22.691Z,101301.69
2017-11-16T00:35:50.154Z,101300.63
2017-11-16T00:38:17.553Z,101300.03
2017-11-16T00:40:44.956Z,101299.39
2017-11-16T00:43:12.369Z,101292.89
2017-11-16T00:45:39.772Z,101293.33
2017-11-16T00:48:07.160Z,101290.44
2017-11-16T00:50:34.568Z,101294.75
2017-11-16T00:53:01.964Z,101289.85
2017-11-16T00:55:29.430Z,101288.78
2017-11-16T00:57:56.811Z,101292.20
2017-11-16T01:00:24.214Z,101287.94
2017-11-16T01:02:51.617Z,101291.39
2017-11-16T01:05:19.014Z,101292.77
2017-11-16T01:07:46.412Z,101280.63
2017-11-16T01:10:13.819Z,101282.55
2017-11-16T01:12:41.222Z,101274.56
2017-11-16T01:15:08.613Z,101276.48
2017-11-16T01:17:36.012Z,101274.56
2017-11-16T01:20:03.407Z,101272.00
2017-11-16T01:22:30.811Z,101273.56
2017-11-16T01:24:58.216Z,101271.59
2017-11-16T01:27:25.612Z,101269.03
2017-11-16T01:29:53.008Z,101275.55
2017-11-16T01:32:20.407Z,101267.89
2017-11-16T01:34:47.801Z,101265.70
2017-11-16T01:37:15.192Z,101268.11
2017-11-16T01:39:42.593Z,101261.63
2017-11-16T01:42:09.977Z,101261.83
2017-11-16T01:44:37.367Z,101261.45
2017-11-16T01:47:04.765Z,101251.52
2017-11-16T01:49:32.160Z,101256.07
2017-11-16T01:51:59.548Z,101250.30
2017-11-16T01:54:26.945Z,101251.08
2017-11-16T01:56:54.345Z,101248.90
2017-11-16T01:59:21.730Z,101246.92
2017-11-16T02:01:49.131Z,101245.62
2017-11-16T02:04:16.523Z,101244.25
2017-11-16T02:06:43.923Z,101245.67
2017-11-16T02:09:11.315Z,101236.30
2017-11-16T02:11:38.713Z,101244.39
2017-11-16T02:14:06.107Z,101252.36
2017-11-16T02:16:33.506Z,101250.28
2017-11-16T02:19:00.891Z,101252.36
2017-11-16T02:21:28.287Z,101255.94
2017-11-16T02:23:55.687Z,101249.82
2017-11-16T02:26:23.084Z,101253.55
2017-11-16T02:28:50.482Z,101246.69
2017-11-16T02:31:17.871Z,101252.84
2017-11-16T02:33:45.267Z,101255.66
2017-11-16T02:36:12.662Z,101247.70
2017-11-16T02:38:40.062Z,101248.48
2017-11-16T02:41:07.453Z,101253.41
2017-11-16T02:43:34.849Z,101245.25
2017-11-16T02:46:02.240Z,101249.31
2017-11-16T02:48:29.627Z,101241.72
2017-11-16T02:50:57.032Z,101238.00
2017-11-16T02:53:24.434Z,101247.86
2017-11-16T02:55:51.811Z,101242.93
2017-11-16T02:58:19.207Z,101239.36
2017-11-16T03:00:46.605Z,101240.70
2017-11-16T03:03:14.000Z,101233.47
2017-11-16T03:05:41.392Z,101235.45
2017-11-16T03:08:08.793Z,101232.53
2017-11-16T03:10:36.175Z,101236.45
2017-11-16T03:13:03.572Z,101235.70
2017-11-16T03:15:30.956Z,101238.91
2017-11-16T03:17:58.359Z,101242.19
2017-11-16T03:20:25.752Z,101240.86
2017-11-16T03:22:53.140Z,101248.73
2017-11-16T03:25:20.557Z,101247.63
2017-11-16T03:27:47.939Z,101253.22
2017-11-16T03:30:15.343Z,101256.27
2017-11-16T03:32:42.737Z,101246.70
2017-11-16T03:35:10.133Z,101246.11
2017-11-16T03:37:37.522Z,101249.00
2017-11-16T03:40:04.924Z,101246.63
2017-11-16T03:42:32.321Z,101245.02
2017-11-16T03:44:59.715Z,101244.75
2017-11-16T03:47:27.103Z,101243.27
2017-11-16T03:49:54.495Z,101247.09
2017-11-16T03:52:21.901Z,101243.16
2017-11-16T03:54:49.292Z,101241.31
2017-11-16T03:57:16.687Z,101235.87
2017-11-16T03:59:44.078Z,101241.18
2017-11-16T04:02:11.479Z,101241.80
2017-11-16T04:04:38.877Z,101239.95
2017-11-16T04:07:06.284Z,101246.34
2017-11-16T04:09:33.683Z,101243.61
2017-11-16T04:12:01.063Z,101243.97
2017-11-16T04:14:28.467Z,101237.80
2017-11-16T04:16:55.857Z,101234.08
2017-11-16T04:19:23.257Z,101230.12
2017-11-16T04:21:50.651Z,101229.50
2017-11-16T04:24:18.044Z,101226.12
2017-11-16T04:26:45.450Z,101238.98
2017-11-16T04:29:12.839Z,101233.95
2017-11-16T04:31:40.227Z,101240.87
2017-11-16T04:34:07.630Z,101230.59
2017-11-16T04:36:35.028Z,101239.72
2017-11-16T04:39:02.424Z,101244.72
2017-11-16T04:41:29.824Z,101240.16
2017-11-16T04:43:57.227Z,101234.19
2017-11-16T04:46:24.636Z,101226.13
2017-11-16T04:48:52.023Z,101220.42
2017-11-16T04:51:19.424Z,101217.04
2017-11-16T04:53:46.819Z,101209.00
2017-11-16T04:56:14.220Z,101203.69
2017-11-16T04:58:41.617Z,101197.20
2017-11-16T05:01:09.009Z,101196.48
2017-11-16T05:03:36.399Z,101195.17
2017-11-16T05:06:03.788Z,101200.64
2017-11-16T05:08:31.191Z,101195.52
2017-11-16T05:10:58.588Z,101199.16
2017-11-16T05:13:25.992Z,101199.98
2017-11-16T05:15:53.380Z,101197.68
2017-11-16T05:18:20.776Z,101196.26
2017-11-16T05:20:48.239Z,101200.50
2017-11-16T05:23:15.635Z,101202.68
2017-11-16T05:25:43.019Z,101204.75
2017-11-16T05:28:10.412Z,101201.27
2017-11-16T05:30:37.819Z,101196.89
2017-11-16T05:33:05.212Z,101186.55
2017-11-16T05:35:32.607Z,101183.28
2017-11-16T05:37:59.997Z,101185.27
2017-11-16T05:40:27.395Z,101194.31
2017-11-16T05:42:54.794Z,101194.55
2017-11-16T05:45:22.184Z,101195.08
2017-11-16T05:47:49.586Z,101209.56
2017-11-16T05:50:16.980Z,101206.45
2017-11-16T05:52:44.376Z,101198.74
2017-11-16T05:55:11.773Z,101194.75
2017-11-16T05:57:39.171Z,101194.10
2017-11-16T06:00:06.562Z,101199.23
2017-11-16T06:02:33.971Z,101206.69
2017-11-16T06:05:01.368Z,101215.78
2017-11-16T06:07:28.760Z,101219.86
2017-11-16T06:09:56.155Z,101223.50
2017-11-16T06:12:23.561Z,101218.11
2017-11-16T06:14:50.961Z,101215.10
2017-11-16T06:17:18.355Z,101214.36
2017-11-16T06:19:45.751Z,101212.38
2017-11-16T06:22:13.147Z,101215.02
2017-11-16T06:24:40.565Z,101216.83
2017-11-16T06:27:07.956Z,101213.09
2017-11-16T06:29:35.354Z,101209.59
2017-11-16T06:32:02.768Z,101213.56
2017-11-16T06:34:30.160Z,101212.63
2017-11-16T06:36:57.576Z,101205.92
2017-11-16T06:39:24.967Z,101215.28
2017-11-16T06:41:52.415Z,101212.11
2017-11-16T06:44:19.799Z,101214.58
2017-11-16T06:46:47.227Z,101222.80
2017-11-16T06:49:14.648Z,101221.30
2017-11-16T06:51:42.091Z,101214.34
2017-11-16T06:54:09.491Z,101217.98
2017-11-16T06:56:36.894Z,101218.64
2017-11-16T06:59:04.297Z,101215.00
2017-11-16T07:01:31.688Z,101209.70
2017-11-16T07:03:59.164Z,101212.86
2017-11-16T07:06:26.559Z,101221.10
2017-11-16T07:08:53.975Z,101225.92
2017-11-16T07:11:21.379Z,101229.23
2017-11-16T07:13:48.775Z,101233.77
2017-11-16T07:16:16.194Z,101234.14
2017-11-16T07:18:43.650Z,101234.30
2017-11-16T07:21:11.829Z,101242.28
2017-11-16T07:23:39.219Z,101254.72
2017-11-16T07:26:06.619Z,101250.42
2017-11-16T07:28:34.009Z,101245.98
2017-11-16T07:31:01.427Z,101238.15
2017-11-16T07:33:28.827Z,101238.23
2017-11-16T07:35:56.231Z,101238.66
2017-11-16T07:38:23.621Z,101240.48
2017-11-16T07:40:51.029Z,101244.22
2017-11-16T07:43:18.444Z,101243.39
2017-11-16T07:45:45.823Z,101248.53
2017-11-16T07:48:13.240Z,101248.70
2017-11-16T07:50:40.689Z,101249.05
2017-11-16T07:53:08.142Z,101243.31
2017-11-16T07:55:35.540Z,101238.94
2017-11-16T07:58:02.966Z,101245.64
2017-11-16T08:00:30.352Z,101245.39
2017-11-16T08:02:57.752Z,101248.79
2017-11-16T08:05:25.160Z,101248.06
2017-11-16T08:07:52.587Z,101243.17
2017-11-16T08:10:19.979Z,101242.41
2017-11-16T08:12:47.383Z,101251.77
2017-11-16T08:15:14.783Z,101263.36
2017-11-16T08:17:42.171Z,101266.03
2017-11-16T08:20:09.588Z,101266.24
2017-11-16T08:22:36.973Z,101281.92
2017-11-16T08:25:04.364Z,101283.52
2017-11-16T08:27:31.761Z,101274.78
2017-11-16T08:29:59.148Z,101278.92
2017-11-16T08:32:26.548Z,101284.41
2017-11-16T08:34:53.940Z,101285.59
2017-11-16T08:37:21.339Z,101291.09
2017-11-16T08:39:48.731Z,101300.55
2017-11-16T08:42:16.125Z,101305.86
2017-11-16T08:44:43.516Z,101306.03
2017-11-16T08:47:10.908Z,101310.25
2017-11-16T08:49:38.327Z,101312.45
2017-11-16T08:52:05.728Z,101312.54
2017-11-16T08:54:33.107Z,101310.05
2017-11-16T08:57:00.504Z,101310.48
2017-11-16T08:59:27.904Z,101308.66
2017-11-16T09:01:55.320Z,101309.88
2017-11-16T09:04:22.711Z,101309.23
2017-11-16T09:06:50.110Z,101315.87
2017-11-16T09:09:17.499Z,101305.49
2017-11-16T09:11:44.903Z,101307.24
2017-11-16T09:14:12.300Z,101308.34
2017-11-16T09:16:39.687Z,101305.82
2017-11-16T09:19:07.088Z,101297.80
2017-11-16T09:21:34.485Z,101299.45
2017-11-16T09:24:01.883Z,101296.11
2017-11-16T09:26:29.275Z,101297.99
2017-11-16T09:28:56.676Z,101294.73
2017-11-16T09:31:24.067Z,101289.89
2017-11-16T09:33:51.464Z,101287.25
2017-11-16T09:36:18.856Z,101276.09
2017-11-16T09:38:46.243Z,101281.37
2017-11-16T09:41:13.643Z,101268.19
2017-11-16T09:43:41.037Z,101266.98
2017-11-16T09:46:08.440Z,101273.63
2017-11-16T09:48:35.833Z,101269.38
2017-11-16T09:51:03.224Z,101266.69
2017-11-16T09:53:30.615Z,101265.04
2017-11-16T09:55:58.034Z,101266.85
2017-11-16T09:58:25.451Z,101270.42
2017-11-16T10:00:52.855Z,101270.63
2017-11-16T10:03:20.254Z,101272.34
2017-11-16T10:05:47.641Z,101268.52
2017-11-16T10:08:15.039Z,101263.56
2017-11-16T10:10:42.437Z,101258.36
2017-11-16T10:13:09.827Z,101253.45
2017-11-16T10:15:37.221Z,101257.72
2017-11-16T10:18:04.643Z,101256.45
2017-11-16T10:20:32.035Z,101253.33
2017-11-16T10:22:59.432Z,101257.11
2017-11-16T10:25:26.831Z,101256.45
2017-11-16T10:27:54.232Z,101245.71
2017-11-16T10:30:21.637Z,101244.48
2017-11-16T10:32:49.036Z,101242.80
2017-11-16T10:35:16.449Z,101242.63
2017-11-16T10:37:43.842Z,101230.37
2017-11-16T10:40:11.248Z,101234.05
2017-11-16T10:42:38.644Z,101224.69
2017-11-16T10:45:06.052Z,101223.97
2017-11-16T10:47:33.457Z,101226.48
2017-11-16T10:50:00.848Z,101214.13
2017-11-16T10:52:28.256Z,101213.19
2017-11-16T10:54:55.651Z,101207.70
2017-11-16T10:57:23.055Z,101207.64
2017-11-16T10:59:50.448Z,101213.27
2017-11-16T11:02:17.865Z,101214.97
2017-11-16T11:04:45.288Z,101209.76
2017-11-16T11:07:12.692Z,101216.07
2017-11-16T11:09:40.085Z,101217.36
2017-11-16T11:12:07.492Z,101226.78
2017-11-16T11:14:34.887Z,101221.52
2017-11-16T11:17:02.286Z,101228.23
2017-11-16T11:19:29.688Z,101228.67
2017-11-16T11:21:57.085Z,101225.25
2017-11-16T11:24:24.482Z,101225.74
2017-11-16T11:26:51.885Z,101222.07
2017-11-16T11:29:19.287Z,101225.74
2017-11-16T11:31:47.519Z,101229.57
2017-11-16T11:34:14.917Z,101229.63
2017-11-16T11:36:42.313Z,101226.09
2017-11-16T11:39:09.720Z,101222.58
2017-11-16T11:41:37.116Z,101220.92
2017-11-16T11:44:04.503Z,101224.73
2017-11-16T11:46:31.903Z,101225.11
2017-11-16T11:48:59.312Z,101225.57
2017-11-16T11:51:26.715Z,101222.84
2017-11-16T11:53:54.131Z,101217.39
2017-11-16T11:56:21.553Z,101219.92
2017-11-16T11:58:48.951Z,101214.50
2017-11-16T12:01:16.378Z,101218.27
2017-11-16T12:03:43.812Z,101210.64
2017-11-16T12:06:11.213Z,101208.56
2017-11-16T12:08:38.621Z,101211.66
2017-11-16T12:11:06.015Z,101202.85
2017-11-16T12:13:33.453Z,101193.62
2017-11-16T12:16:00.898Z,101188.27
2017-11-16T12:18:28.315Z,101190.66
2017-11-16T12:20:55.739Z,101190.38
2017-11-16T12:23:23.127Z,101194.27
2017-11-16T12:25:50.567Z,101191.05
2017-11-16T12:28:17.987Z,101189.08
2017-11-16T12:30:45.470Z,101187.43
2017-11-16T12:33:12.867Z,101187.05
2017-11-16T12:35:40.271Z,101192.00
2017-11-16T12:38:07.689Z,101192.64
2017-11-16T12:40:35.107Z,101192.41
2017-11-16T12:43:02.527Z,101187.30
2017-11-16T12:45:29.944Z,101193.05
2017-11-16T12:47:57.328Z,101195.34
2017-11-16T12:50:24.723Z,101187.55
2017-11-16T12:52:52.131Z,101185.91
2017-11-16T12:55:19.545Z,101182.36
2017-11-16T12:57:46.943Z,101181.45
2017-11-16T13:00:14.345Z,101175.13
2017-11-16T13:02:41.756Z,101171.12
2017-11-16T13:05:09.147Z,101172.07
2017-11-16T13:07:36.552Z,101166.07
2017-11-16T13:10:03.955Z,101153.72
2017-11-16T13:12:31.402Z,101141.23
2017-11-16T13:14:58.800Z,101141.27
2017-11-16T13:17:26.204Z,101138.66
2017-11-16T13:19:53.608Z,101139.29
2017-11-16T13:22:21.017Z,101133.58
2017-11-16T13:24:48.468Z,101138.28
2017-11-16T13:27:15.847Z,101137.61
2017-11-16T13:29:43.256Z,101135.05
2017-11-16T13:32:10.668Z,101138.59
2017-11-16T13:34:38.099Z,101132.53
2017-11-16T13:37:05.505Z,101139.69
2017-11-16T13:39:32.908Z,101139.13
2017-11-16T13:42:00.304Z,101136.42
2017-11-16T13:44:27.722Z,101127.19
2017-11-16T13:46:55.152Z,101131.92
2017-11-16T13:49:22.552Z,101131.05
2017-11-16T13:51:49.968Z,101122.91
2017-11-16T13:54:17.408Z,101123.89
2017-11-16T13:56:44.822Z,101120.11
2017-11-16T13:59:12.246Z,101117.23
2017-11-16T14:01:39.652Z,101112.53
2017-11-16T14:04:07.066Z,101100.63
2017-11-16T14:06:34.527Z,101099.34
2017-11-16T14:09:01.897Z,101099.62
2017-11-16T14:11:29.292Z,101099.05
2017-11-16T14:13:56.725Z,101098.11
2017-11-16T14:16:24.170Z,101098.88
2017-11-16T14:18:51.603Z,101094.95
2017-11-16T14:21:19.021Z,101095.55
2017-11-16T14:23:46.415Z,101094.08
2017-11-16T14:26:13.815Z,101093.90
2017-11-16T14:28:41.211Z,101098.45
2017-11-16T14:31:08.631Z,101095.47
2017-11-16T14:33:36.045Z,101089.30
2017-11-16T14:36:03.459Z,101093.83
2017-11-16T14:38:30.856Z,101094.48
2017-11-16T14:40:58.302Z,101089.33
2017-11-16T14:43:25.712Z,101086.25
2017-11-16T14:45:53.144Z,101087.58
2017-11-16T14:48:20.551Z,101085.79
2017-11-16T14:50:47.972Z,101095.00
2017-11-16T14:53:15.488Z,101096.38
2017-11-16T14:55:42.872Z,101090.13
2017-11-16T14:58:10.287Z,101090.43
2017-11-16T15:00:37.733Z,101096.45
2017-11-16T15:03:05.123Z,101088.53
2017-11-16T15:05:32.543Z,101096.80
2017-11-16T15:08:00.053Z,101100.69
2017-11-16T15:10:27.450Z,101109.27
2017-11-16T15:12:54.863Z,101109.75
2017-11-16T15:15:22.282Z,101113.86
2017-11-16T15:17:49.696Z,101114.34
2017-11-16T15:20:17.116Z,101110.88
2017-11-16T15:22:44.512Z,101109.92
2017-11-16T15:25:11.928Z,101107.32
2017-11-16T15:27:39.370Z,101105.84
2017-11-16T15:30:06.755Z,101101.31
2017-11-16T15:32:34.171Z,101097.77
2017-11-16T15:35:01.705Z,101098.66
2017-11-16T15:37:29.140Z,101101.18
2017-11-16T15:39:56.525Z,101100.23
2017-11-16T15:42:23.932Z,101102.84
2017-11-16T15:44:51.328Z,101101.27
2017-11-16T15:47:18.732Z,101105.20
2017-11-16T15:49:46.139Z,101101.31
2017-11-16T15:52:13.539Z,101106.05
2017-11-16T15:54:40.983Z,101103.55
2017-11-16T15:57:08.381Z,101098.07
2017-11-16T15:59:35.775Z,101095.09
2017-11-16T16:02:03.179Z,101100.36
2017-11-16T16:04:30.575Z,101097.82
2017-11-16T16:06:57.983Z,101103.94
2017-11-16T16:09:25.377Z,101099.84
2017-11-16T16:11:52.772Z,101095.04
2017-11-16T16:14:20.180Z,101096.64
2017-11-16T16:16:47.929Z,101098.39
2017-11-16T16:19:15.332Z,101096.80
2017-11-16T16:21:42.726Z,101101.77
2017-11-16T16:24:10.119Z,101100.91
2017-11-16T16:26:37.536Z,101107.29
2017-11-16T16:29:04.933Z,101108.67
2017-11-16T16:31:32.416Z,101106.77
2017-11-16T16:33:59.816Z,101112.95
2017-11-16T16:36:27.222Z,101119.12
2017-11-16T16:38:54.740Z,101121.53
2017-11-16T16:41:22.148Z,101126.34
2017-11-16T16:43:49.549Z,101131.58
2017-11-16T16:46:16.941Z,101135.09
2017-11-16T16:48:44.342Z,101135.70
2017-11-16T16:51:11.732Z,101131.33
2017-11-16T16:53:39.133Z,101131.28
2017-11-16T16:56:06.524Z,101134.05
2017-11-16T16:58:33.920Z,101132.88
2017-11-16T17:01:01.311Z,101144.95
2017-11-16T17:03:28.715Z,101143.58
2017-11-16T17:05:56.142Z,101142.34
2017-11-16T17:08:23.523Z,101138.58
2017-11-16T17:10:50.922Z,101132.34
2017-11-16T17:13:18.373Z,101126.81
2017-11-16T17:15:45.762Z,101122.92
2017-11-16T17:18:13.156Z,101126.75
2017-11-16T17:20:40.559Z,101130.27
2017-11-16T17:23:07.991Z,101126.49
2017-11-16T17:25:35.458Z,101124.79
2017-11-16T17:28:02.835Z,101120.90
2017-11-16T17:30:30.224Z,101108.28
2017-11-16T17:32:57.620Z,101120.84
2017-11-16T17:35:26.200Z,101114.67
2017-11-16T17:37:53.591Z,101118.66
2017-11-16T17:40:20.996Z,101115.52
2017-11-16T17:42:48.396Z,101117.33
2017-11-16T17:45:15.796Z,101131.48
2017-11-16T17:47:43.207Z,101137.19
2017-11-16T17:50:10.612Z,101147.34
2017-11-16T17:52:38.071Z,101144.42
2017-11-16T17:55:05.469Z,101150.27
2017-11-16T17:57:32.860Z,101148.14
2017-11-16T18:00:00.260Z,101156.66
2017-11-16T18:02:27.655Z,101156.08
2017-11-16T18:04:55.048Z,101154.27
2017-11-16T18:07:22.450Z,101156.02
2017-11-16T18:09:49.892Z,101155.06
2017-11-16T18:12:17.283Z,101153.20
2017-11-16T18:14:44.680Z,101156.81
2017-11-16T18:17:12.087Z,101158.98
2017-11-16T18:19:39.484Z,101159.91
2017-11-16T18:22:07.579Z,101154.84
2017-11-16T18:24:34.972Z,101157.50
2017-11-16T18:27:02.359Z,101149.73
2017-11-16T18:29:29.766Z,101146.66
2017-11-16T18:31:57.148Z,101147.28
2017-11-16T18:34:24.563Z,101154.68
2017-11-16T18:36:51.960Z,101158.14
2017-11-16T18:39:19.364Z,101159.90
2017-11-16T18:41:46.771Z,101158.08
2017-11-16T18:44:14.164Z,101164.95
2017-11-16T18:46:41.560Z,101165.73
2017-11-16T18:49:09.929Z,101168.84
2017-11-16T18:51:37.332Z,101169.59
2017-11-16T18:54:04.742Z,101175.11
2017-11-16T18:56:32.116Z,101173.94
2017-11-16T18:58:59.521Z,101166.44
2017-11-16T19:01:26.940Z,101161.19
2017-11-16T19:03:54.341Z,101165.37
2017-11-16T19:06:22.504Z,101167.19
2017-11-16T19:08:49.900Z,101162.87
2017-11-16T19:11:17.283Z,101174.59
2017-11-16T19:13:44.680Z,101176.76
2017-11-16T19:16:12.077Z,101182.57
2017-11-16T19:18:39.483Z,101180.88
2017-11-16T19:21:06.882Z,101174.48
2017-11-16T19:23:34.352Z,101183.91
2017-11-16T19:26:01.762Z,101177.26
2017-11-16T19:28:29.141Z,101187.26
2017-11-16T19:30:56.583Z,101196.30
2017-11-16T19:33:23.988Z,101194.61
2017-11-16T19:35:51.401Z,101190.08
2017-11-16T19:38:18.792Z,101193.06
2017-11-16T19:40:46.636Z,101189.70
2017-11-16T19:43:14.025Z,101195.13
2017-11-16T19:45:41.417Z,101189.16
2017-11-16T19:48:08.865Z,101190.81
2017-11-16T19:50:36.248Z,101183.52
2017-11-16T19:53:03.651Z,101180.29
2017-11-16T19:55:31.040Z,101189.66
2017-11-16T19:57:58.552Z,101193.80
2017-11-16T20:00:25.943Z,101189.33
2017-11-16T20:02:53.335Z,101198.55
2017-11-16T20:05:20.728Z,101192.22
2017-11-16T20:07:48.169Z,101191.30
2017-11-16T20:10:15.567Z,101193.80
2017-11-16T20:12:42.968Z,101188.53
2017-11-16T20:15:10.369Z,101185.63
2017-11-16T20:17:37.759Z,101188.16
2017-11-16T20:20:05.195Z,101195.98
2017-11-16T20:22:32.573Z,101191.88
2017-11-16T20:24:59.964Z,101189.68
2017-11-16T20:27:27.368Z,101189.95
2017-11-16T20:29:54.749Z,101195.85
2017-11-16T20:32:22.147Z,101196.34
2017-11-16T20:34:49.543Z,101188.46
2017-11-16T20:37:20.344Z,101198.19
2017-11-16T20:39:47.732Z,101194.89
2017-11-16T20:45:30.319Z,101193.45
2017-11-16T20:51:06.209Z,101205.27
2017-11-16T20:53:39.190Z,101201.70
2017-11-16T20:56:06.598Z,101205.37
2017-11-16T20:58:34.009Z,101201.38
2017-11-16T21:01:01.395Z,101209.36
2017-11-16T21:03:28.796Z,101204.95
2017-11-16T21:05:56.195Z,101199.72
2017-11-16T21:08:23.596Z,101206.75
2017-11-16T21:10:50.993Z,101205.27
2017-11-16T21:13:18.387Z,101199.09
2017-11-16T21:15:45.784Z,101204.94
2017-11-16T21:18:13.196Z,101202.60
2017-11-16T21:20:40.583Z,101203.67
2017-11-16T21:23:07.984Z,101210.42
2017-11-16T21:25:35.375Z,101206.33
2017-11-16T21:28:02.783Z,101202.13
2017-11-16T21:30:30.185Z,101197.22
2017-11-16T21:32:57.588Z,101188.08
2017-11-16T21:35:24.983Z,101194.95
2017-11-16T21:37:52.389Z,101196.02
2017-11-16T21:40:19.791Z,101194.73
2017-11-16T21:42:47.192Z,101197.75
2017-11-16T21:45:14.602Z,101191.59
2017-11-16T21:47:41.992Z,101201.41
2017-11-16T21:50:09.398Z,101199.63
2017-11-16T21:52:36.785Z,101196.73
2017-11-16T21:55:04.204Z,101201.21
2017-11-16T21:57:31.595Z,101200.37
2017-11-16T21:59:59.000Z,101199.78
2017-11-16T22:02:26.392Z,101201.86
2017-11-16T22:04:53.788Z,101200.53
2017-11-16T22:07:21.184Z,101203.41
2017-11-16T22:09:48.579Z,101200.95
2017-11-16T22:12:15.975Z,101203.31
2017-11-16T22:14:43.371Z,101202.34
2017-11-16T22:17:10.789Z,101198.84
2017-11-16T22:19:38.190Z,101202.66
2017-11-16T22:22:05.848Z,101204.91
2017-11-16T22:24:33.233Z,101204.95
2017-11-16T22:27:00.627Z,101206.65
2017-11-16T22:29:28.024Z,101212.94
2017-11-16T22:31:55.419Z,101210.13
2017-11-16T22:34:22.868Z,101209.21
2017-11-16T22:36:50.279Z,101200.39
2017-11-16T22:39:17.723Z,101203.47
2017-11-16T22:41:45.130Z,101205.08
2017-11-16T22:44:12.524Z,101206.41
2017-11-16T22:46:39.932Z,101211.02
2017-11-16T22:49:07.343Z,101213.63
2017-11-16T22:51:34.744Z,101216.55
2017-11-16T22:54:02.134Z,101214.53
2017-11-16T22:56:29.542Z,101221.08
2017-11-16T22:58:56.937Z,101210.37
2017-11-16T23:01:24.341Z,101221.34
2017-11-16T23:03:51.724Z,101215.86
2017-11-16T23:06:19.106Z,101215.12
2017-11-16T23:08:46.510Z,101215.28
2017-11-16T23:11:13.909Z,101219.48
2017-11-16T23:13:41.303Z,101219.55
2017-11-16T23:16:08.691Z,101220.45
2017-11-16T23:18:36.088Z,101214.65
2017-11-16T23:21:03.485Z,101213.75
2017-11-16T23:23:30.888Z,101211.14
2017-11-16T23:25:58.286Z,101212.80
2017-11-16T23:28:25.684Z,101214.81
2017-11-16T23:30:53.096Z,101210.81
2017-11-16T23:33:20.503Z,101212.14
2017-11-16T23:35:47.900Z,101216.78
2017-11-16T23:38:15.325Z,101212.58
2017-11-16T23:40:42.754Z,101207.42
2017-11-16T23:43:10.169Z,101211.08
2017-11-16T23:45:37.575Z,101214.45
2017-11-16T23:48:04.980Z,101219.87
2017-11-16T23:50:32.367Z,101217.21
2017-11-16T23:52:59.767Z,101217.10
2017-11-16T23:55:27.168Z,101219.12
2017-11-16T23:57:54.565Z,101219.45
